createdAt,value
2023-04-21T00:00:21.437Z,99.43
2023-04-21T00:01:21.397Z,99.54
2023-04-21T00:02:22.013Z,99.49
2023-04-21T00:03:22.689Z,99.29
2023-04-21T00:04:22.487Z,99.39
2023-04-21T00:05:22.730Z,99.64
2023-04-21T00:06:23.197Z,99.54
2023-04-21T00:07:23.286Z,99.60
2023-04-21T00:08:23.811Z,99.54
2023-04-21T00:09:24.369Z,99.43
2023-04-21T00:10:24.937Z,99.33
2023-04-21T00:11:25.510Z,99.23
2023-04-21T00:12:26.068Z,99.23
2023-04-21T00:13:26.612Z,99.23
2023-04-21T00:14:27.150Z,99.43
2023-04-21T00:15:27.709Z,99.54
2023-04-21T00:16:28.305Z,99.33
2023-04-21T00:17:28.341Z,99.54
2023-04-21T00:18:28.312Z,99.54
2023-04-21T00:19:28.866Z,99.64
2023-04-21T00:20:29.442Z,99.43
2023-04-21T00:21:30.005Z,99.54
2023-04-21T00:22:30.014Z,99.54
2023-04-21T00:23:30.565Z,99.74
2023-04-21T00:24:31.114Z,99.74
2023-04-21T00:25:31.655Z,99.74
2023-04-21T00:26:32.195Z,99.85
2023-04-21T00:27:32.746Z,99.74
2023-04-21T00:28:33.306Z,99.90
2023-04-21T00:29:33.847Z,99.95
2023-04-21T00:30:34.380Z,99.95
2023-04-21T00:31:34.965Z,99.95
2023-04-21T00:32:34.960Z,99.95
2023-04-21T00:33:35.477Z,99.95
2023-04-21T00:34:35.994Z,99.90
2023-04-21T00:35:36.501Z,99.74
2023-04-21T00:36:37.006Z,99.58
2023-04-21T00:37:37.518Z,99.79
2023-04-21T00:38:38.042Z,99.64
2023-04-21T00:39:38.561Z,99.54
2023-04-21T00:40:39.063Z,99.48
2023-04-21T00:41:39.564Z,99.33
2023-04-21T00:42:40.069Z,99.02
2023-04-21T00:43:40.562Z,98.82
2023-04-21T00:44:41.067Z,98.71
2023-04-21T00:45:41.563Z,98.61
2023-04-21T00:46:42.101Z,98.40
2023-04-21T00:47:42.655Z,98.09
2023-04-21T00:48:42.637Z,97.78
2023-04-21T00:49:43.141Z,97.88
2023-04-21T00:50:43.668Z,97.99
2023-04-21T00:51:44.187Z,97.99
2023-04-21T00:52:44.710Z,97.88
2023-04-21T00:53:45.207Z,97.78
2023-04-21T00:54:45.708Z,97.67
2023-04-21T00:55:46.259Z,97.57
2023-04-21T00:56:46.765Z,97.57
2023-04-21T00:57:47.278Z,97.47
2023-04-21T00:58:47.792Z,97.47
2023-04-21T00:59:48.303Z,97.47
2023-04-21T01:00:48.879Z,97.06
2023-04-21T01:01:48.898Z,97.06
2023-04-21T01:02:48.948Z,97.26
2023-04-21T01:03:49.067Z,96.85
2023-04-21T01:04:49.114Z,96.64
2023-04-21T01:05:49.656Z,96.12
2023-04-21T01:06:50.162Z,96.23
2023-04-21T01:07:50.661Z,96.48
2023-04-21T01:08:51.176Z,96.54
2023-04-21T01:09:51.706Z,96.64
2023-04-21T01:10:52.236Z,96.64
2023-04-21T01:11:52.744Z,96.44
2023-04-21T01:12:53.257Z,96.64
2023-04-21T01:13:53.773Z,96.64
2023-04-21T01:14:54.289Z,96.64
2023-04-21T01:15:54.797Z,96.70
2023-04-21T01:16:55.387Z,96.59
2023-04-21T01:17:55.379Z,96.44
2023-04-21T01:18:55.996Z,96.23
2023-04-21T01:19:56.019Z,96.54
2023-04-21T01:20:55.938Z,96.33
2023-04-21T01:21:55.939Z,96.54
2023-04-21T01:22:56.464Z,96.54
2023-04-21T01:23:56.970Z,96.58
2023-04-21T01:24:57.484Z,96.44
2023-04-21T01:25:57.982Z,95.92
2023-04-21T01:26:58.482Z,95.50
2023-04-21T01:27:59.057Z,95.92
2023-04-21T01:28:59.563Z,96.06
2023-04-21T01:30:00.065Z,96.17
2023-04-21T01:31:00.573Z,96.17
2023-04-21T01:32:01.116Z,96.37
2023-04-21T01:33:01.680Z,96.48
2023-04-21T01:34:02.212Z,96.58
2023-04-21T01:35:02.722Z,96.37
2023-04-21T01:36:03.219Z,96.27
2023-04-21T01:37:03.716Z,96.48
2023-04-21T01:38:04.210Z,96.27
2023-04-21T01:39:04.727Z,96.06
2023-04-21T01:40:05.287Z,96.06
2023-04-21T01:41:05.796Z,96.17
2023-04-21T01:42:06.299Z,95.96
2023-04-21T01:43:06.801Z,95.44
2023-04-21T01:44:07.324Z,96.27
2023-04-21T01:45:07.856Z,96.73
2023-04-21T01:46:08.402Z,96.79
2023-04-21T01:47:08.923Z,96.69
2023-04-21T01:48:09.512Z,96.79
2023-04-21T01:49:09.482Z,96.79
2023-04-21T01:50:10.033Z,97.00
2023-04-21T01:51:10.562Z,97.10
2023-04-21T01:52:10.602Z,97.16
2023-04-21T01:53:11.111Z,97.10
2023-04-21T01:54:11.606Z,97.00
2023-04-21T01:55:12.110Z,96.85
2023-04-21T01:56:12.623Z,96.75
2023-04-21T01:57:13.167Z,96.37
2023-04-21T01:58:13.721Z,96.58
2023-04-21T01:59:14.226Z,96.79
2023-04-21T02:00:14.738Z,96.79
2023-04-21T02:01:15.286Z,96.69
2023-04-21T02:02:15.924Z,96.58
2023-04-21T02:03:16.066Z,96.79
2023-04-21T02:04:16.273Z,96.85
2023-04-21T02:05:16.243Z,96.58
2023-04-21T02:06:16.741Z,96.54
2023-04-21T02:07:17.249Z,96.64
2023-04-21T02:08:17.757Z,96.64
2023-04-21T02:09:18.585Z,96.54
2023-04-21T02:10:18.729Z,96.37
2023-04-21T02:11:19.260Z,96.64
2023-04-21T02:12:19.791Z,96.69
2023-04-21T02:13:20.287Z,96.89
2023-04-21T02:14:20.772Z,96.89
2023-04-21T02:15:21.277Z,97.00
2023-04-21T02:16:21.846Z,97.10
2023-04-21T02:17:22.373Z,97.20
2023-04-21T02:18:22.901Z,97.00
2023-04-21T02:19:23.457Z,96.69
2023-04-21T02:20:24.020Z,96.62
2023-04-21T02:21:24.546Z,96.62
2023-04-21T02:22:24.628Z,96.62
2023-04-21T02:23:25.140Z,97.04
2023-04-21T02:24:25.689Z,97.04
2023-04-21T02:25:26.193Z,97.25
2023-04-21T02:26:26.683Z,97.66
2023-04-21T02:27:27.205Z,97.93
2023-04-21T02:28:27.738Z,97.97
2023-04-21T02:29:28.252Z,97.83
2023-04-21T02:30:28.756Z,97.87
2023-04-21T02:36:12.208Z,97.56
2023-04-21T02:37:13.370Z,97.87
2023-04-21T02:38:13.941Z,97.97
2023-04-21T02:39:14.503Z,98.08
2023-04-21T02:40:15.097Z,97.87
2023-04-21T02:41:15.668Z,97.97
2023-04-21T02:42:16.248Z,97.97
2023-04-21T02:43:16.828Z,97.97
2023-04-21T02:44:17.375Z,98.08
2023-04-21T02:45:17.916Z,97.97
2023-04-21T02:46:18.559Z,98.18
2023-04-21T02:47:18.572Z,98.08
2023-04-21T02:48:19.149Z,97.97
2023-04-21T02:49:20.061Z,97.87
2023-04-21T02:50:20.280Z,97.77
2023-04-21T02:51:20.867Z,97.62
2023-04-21T02:52:21.446Z,97.41
2023-04-21T02:53:22.037Z,97.00
2023-04-21T02:54:22.620Z,96.58
2023-04-21T02:55:23.192Z,96.37
2023-04-21T02:56:23.776Z,96.31
2023-04-21T02:57:24.361Z,96.31
2023-04-21T02:58:24.954Z,96.52
2023-04-21T02:59:25.536Z,96.88
2023-04-21T03:00:26.384Z,97.09
2023-04-21T03:01:26.492Z,97.39
2023-04-21T03:02:26.792Z,97.50
2023-04-21T03:03:26.999Z,97.39
2023-04-21T03:04:27.310Z,97.19
2023-04-21T03:05:27.497Z,97.29
2023-04-21T03:06:28.066Z,97.50
2023-04-21T03:07:28.652Z,97.71
2023-04-21T03:08:29.242Z,97.56
2023-04-21T03:09:29.832Z,97.50
2023-04-21T03:10:30.431Z,97.50
2023-04-21T03:11:31.035Z,97.60
2023-04-21T03:12:31.620Z,97.71
2023-04-21T03:13:32.192Z,97.91
2023-04-21T03:14:32.771Z,98.17
2023-04-21T03:15:33.343Z,98.02
2023-04-21T03:16:33.948Z,98.22
2023-04-21T03:17:34.589Z,98.22
2023-04-21T03:18:34.609Z,98.43
2023-04-21T03:19:35.191Z,98.39
2023-04-21T03:20:35.786Z,98.28
2023-04-21T03:21:36.377Z,97.87
2023-04-21T03:22:36.970Z,97.45
2023-04-21T03:23:37.550Z,97.14
2023-04-21T03:24:38.153Z,96.67
2023-04-21T03:25:38.771Z,96.05
2023-04-21T03:26:39.357Z,95.64
2023-04-21T03:27:39.923Z,95.68
2023-04-21T03:28:40.487Z,95.78
2023-04-21T03:29:41.061Z,95.78
2023-04-21T03:30:41.702Z,96.26
2023-04-21T03:31:41.718Z,96.78
2023-04-21T03:32:41.950Z,96.88
2023-04-21T03:33:41.946Z,96.57
2023-04-21T03:34:42.523Z,96.88
2023-04-21T03:35:43.099Z,96.57
2023-04-21T03:36:43.676Z,96.36
2023-04-21T03:37:44.239Z,96.36
2023-04-21T03:38:44.819Z,96.47
2023-04-21T03:39:45.403Z,96.88
2023-04-21T03:40:45.971Z,96.98
2023-04-21T03:41:46.556Z,96.94
2023-04-21T03:42:47.155Z,96.83
2023-04-21T03:43:47.720Z,96.83
2023-04-21T03:44:48.294Z,96.94
2023-04-21T03:45:48.921Z,96.83
2023-04-21T03:46:48.990Z,96.78
2023-04-21T03:47:49.758Z,96.78
2023-04-21T03:48:49.856Z,96.98
2023-04-21T03:49:49.920Z,97.19
2023-04-21T03:50:50.538Z,97.29
2023-04-21T03:51:51.183Z,97.29
2023-04-21T03:52:51.219Z,97.19
2023-04-21T03:53:51.844Z,97.60
2023-04-21T03:54:52.454Z,97.75
2023-04-21T03:55:53.085Z,97.91
2023-04-21T03:56:53.121Z,98.17
2023-04-21T03:57:53.740Z,98.38
2023-04-21T03:58:54.367Z,98.58
2023-04-21T03:59:54.972Z,98.79
2023-04-21T04:00:55.578Z,99.26
2023-04-21T04:01:56.194Z,99.47
2023-04-21T04:02:56.932Z,99.26
2023-04-21T04:03:57.230Z,99.16
2023-04-21T04:04:57.375Z,99.22
2023-04-21T04:05:57.515Z,99.22
2023-04-21T04:06:57.574Z,99.16
2023-04-21T04:07:57.622Z,98.95
2023-04-21T04:08:58.218Z,98.90
2023-04-21T04:09:58.838Z,98.69
2023-04-21T04:10:59.464Z,99.10
2023-04-21T04:12:00.123Z,99.37
2023-04-21T04:13:00.166Z,99.47
2023-04-21T04:14:00.795Z,99.26
2023-04-21T04:15:01.457Z,99.05
2023-04-21T04:16:01.564Z,98.85
2023-04-21T04:17:01.640Z,99.31
2023-04-21T04:18:02.279Z,99.31
2023-04-21T04:19:02.371Z,99.37
2023-04-21T04:20:02.420Z,99.52
2023-04-21T04:21:03.042Z,99.37
2023-04-21T04:22:03.654Z,99.26
2023-04-21T04:23:04.254Z,99.05
2023-04-21T04:24:04.864Z,98.90
2023-04-21T04:25:05.506Z,99.10
2023-04-21T04:26:05.759Z,99.10
2023-04-21T04:27:05.851Z,99.00
2023-04-21T04:28:05.873Z,99.16
2023-04-21T04:29:06.478Z,99.31
2023-04-21T04:30:07.135Z,99.26
2023-04-21T04:31:07.229Z,98.90
2023-04-21T04:32:07.288Z,99.10
2023-04-21T04:33:07.935Z,99.26
2023-04-21T04:34:07.977Z,99.26
2023-04-21T04:35:08.614Z,99.26
2023-04-21T04:36:09.222Z,99.26
2023-04-21T04:37:09.842Z,99.05
2023-04-21T04:38:10.450Z,98.95
2023-04-21T04:39:11.071Z,98.64
2023-04-21T04:40:11.682Z,98.64
2023-04-21T04:41:12.302Z,98.85
2023-04-21T04:42:12.946Z,98.74
2023-04-21T04:43:12.996Z,98.74
2023-04-21T04:44:13.062Z,98.54
2023-04-21T04:45:13.121Z,98.39
2023-04-21T04:46:13.750Z,98.22
2023-04-21T04:47:13.786Z,98.12
2023-04-21T04:48:14.415Z,98.02
2023-04-21T04:49:15.031Z,98.22
2023-04-21T04:50:15.630Z,98.33
2023-04-21T04:51:16.241Z,98.22
2023-04-21T04:52:16.826Z,98.02
2023-04-21T04:53:17.398Z,97.71
2023-04-21T04:54:18.355Z,97.91
2023-04-21T04:55:18.595Z,98.17
2023-04-21T04:56:19.176Z,98.12
2023-04-21T04:57:19.793Z,97.91
2023-04-21T04:58:20.379Z,98.12
2023-04-21T04:59:20.973Z,98.12
2023-04-21T05:00:21.578Z,98.18
2023-04-21T05:01:22.206Z,98.18
2023-04-21T05:02:22.363Z,98.12
2023-04-21T05:03:22.654Z,98.02
2023-04-21T05:04:23.137Z,98.08
2023-04-21T05:05:23.104Z,97.97
2023-04-21T05:06:23.686Z,97.56
2023-04-21T05:07:24.270Z,97.66
2023-04-21T05:08:24.890Z,97.45
2023-04-21T05:09:25.476Z,97.25
2023-04-21T05:10:26.042Z,97.50
2023-04-21T05:11:26.618Z,97.45
2023-04-21T05:12:27.198Z,97.39
2023-04-21T05:13:27.804Z,97.14
2023-04-21T05:14:28.406Z,97.25
2023-04-21T05:15:29.038Z,97.04
2023-04-21T05:16:29.060Z,96.62
2023-04-21T05:17:29.697Z,96.73
2023-04-21T05:18:29.707Z,96.78
2023-04-21T05:19:30.276Z,97.25
2023-04-21T05:20:30.864Z,97.50
2023-04-21T05:21:31.450Z,97.45
2023-04-21T05:22:32.046Z,97.77
2023-04-21T05:23:32.649Z,97.97
2023-04-21T05:24:33.218Z,97.87
2023-04-21T05:25:33.782Z,97.72
2023-04-21T05:26:34.348Z,97.52
2023-04-21T05:27:34.927Z,97.31
2023-04-21T05:28:35.496Z,97.10
2023-04-21T05:29:36.068Z,97.00
2023-04-21T05:30:36.640Z,97.00
2023-04-21T05:31:37.248Z,97.04
2023-04-21T05:32:37.860Z,96.79
2023-04-21T05:33:38.464Z,96.79
2023-04-21T05:34:39.074Z,96.69
2023-04-21T05:35:39.680Z,96.37
2023-04-21T05:36:40.258Z,95.96
2023-04-21T05:37:40.852Z,96.27
2023-04-21T05:38:42.434Z,96.27
2023-04-21T05:39:41.841Z,96.37
2023-04-21T05:40:42.442Z,96.37
2023-04-21T05:41:43.045Z,96.27
2023-04-21T05:42:43.634Z,96.37
2023-04-21T05:43:44.239Z,96.48
2023-04-21T05:44:44.821Z,96.48
2023-04-21T05:45:45.453Z,96.33
2023-04-21T05:46:45.508Z,96.33
2023-04-21T05:47:46.166Z,96.27
2023-04-21T05:48:46.190Z,96.12
2023-04-21T05:49:46.765Z,95.81
2023-04-21T05:50:47.352Z,95.71
2023-04-21T05:51:47.936Z,95.81
2023-04-21T05:52:48.532Z,96.02
2023-04-21T05:53:49.110Z,95.40
2023-04-21T05:54:49.686Z,95.61
2023-04-21T05:55:50.283Z,95.92
2023-04-21T05:56:50.853Z,96.02
2023-04-21T05:57:51.424Z,95.92
2023-04-21T05:58:52.029Z,95.92
2023-04-21T05:59:52.605Z,95.87
2023-04-21T06:00:53.178Z,95.67
2023-04-21T06:01:53.760Z,95.77
2023-04-21T06:02:54.468Z,95.56
2023-04-21T06:03:54.774Z,95.56
2023-04-21T06:04:55.002Z,95.61
2023-04-21T06:05:55.194Z,95.71
2023-04-21T06:06:55.310Z,95.67
2023-04-21T06:07:55.892Z,95.56
2023-04-21T06:08:56.468Z,95.77
2023-04-21T06:09:57.057Z,95.98
2023-04-21T06:10:57.647Z,95.87
2023-04-21T06:11:58.224Z,95.71
2023-04-21T06:12:58.824Z,95.56
2023-04-21T06:13:59.401Z,95.67
2023-04-21T06:14:59.970Z,95.67
2023-04-21T06:16:00.594Z,95.77
2023-04-21T06:17:00.612Z,95.98
2023-04-21T06:18:01.354Z,95.98
2023-04-21T06:19:01.449Z,96.08
2023-04-21T06:20:02.040Z,96.19
2023-04-21T06:21:02.652Z,96.24
2023-04-21T06:22:03.227Z,96.24
2023-04-21T06:23:03.823Z,96.03
2023-04-21T06:24:04.396Z,96.14
2023-04-21T06:25:04.962Z,95.73
2023-04-21T06:26:05.600Z,95.83
2023-04-21T06:27:05.619Z,95.83
2023-04-21T06:28:06.175Z,96.14
2023-04-21T06:29:06.745Z,96.19
2023-04-21T06:30:07.318Z,96.45
2023-04-21T06:31:08.984Z,96.66
2023-04-21T06:32:08.082Z,96.45
2023-04-21T06:33:08.151Z,96.39
2023-04-21T06:34:08.145Z,96.59
2023-04-21T06:35:08.713Z,96.24
2023-04-21T06:36:09.306Z,96.14
2023-04-21T06:37:09.900Z,96.45
2023-04-21T06:38:10.509Z,96.45
2023-04-21T06:39:10.551Z,96.24
2023-04-21T06:40:11.142Z,96.39
2023-04-21T06:41:11.722Z,96.55
2023-04-21T06:42:12.309Z,96.66
2023-04-21T06:43:12.901Z,96.55
2023-04-21T06:44:13.483Z,96.66
2023-04-21T06:45:14.058Z,96.97
2023-04-21T06:46:14.630Z,96.97
2023-04-21T06:47:15.246Z,96.66
2023-04-21T06:48:15.938Z,96.66
2023-04-21T06:49:15.954Z,96.66
2023-04-21T06:50:16.538Z,96.55
2023-04-21T06:51:17.134Z,96.45
2023-04-21T06:52:18.902Z,96.20
2023-04-21T06:53:17.759Z,96.14
2023-04-21T06:54:18.315Z,96.20
2023-04-21T06:55:18.868Z,96.20
2023-04-21T06:56:19.429Z,96.09
2023-04-21T06:57:20.000Z,95.99
2023-04-21T06:58:21.455Z,95.57
2023-04-21T06:59:21.202Z,95.78
2023-04-21T07:00:21.299Z,95.57
2023-04-21T07:01:21.916Z,95.17
2023-04-21T07:02:22.026Z,95.52
2023-04-21T07:03:22.316Z,95.73
2023-04-21T07:04:22.536Z,96.03
2023-04-21T07:05:22.545Z,96.03
2023-04-21T07:06:23.131Z,95.52
2023-04-21T07:07:23.724Z,95.94
2023-04-21T07:08:24.298Z,96.30
2023-04-21T07:09:24.885Z,95.99
2023-04-21T07:10:25.520Z,95.89
2023-04-21T07:11:25.536Z,95.78
2023-04-21T07:12:26.154Z,94.96
2023-04-21T07:13:26.144Z,95.78
2023-04-21T07:14:26.721Z,96.47
2023-04-21T07:15:27.306Z,96.98
2023-04-21T07:16:27.921Z,96.47
2023-04-21T07:17:27.963Z,95.95
2023-04-21T07:18:27.985Z,95.68
2023-04-21T07:19:28.620Z,95.12
2023-04-21T07:20:28.618Z,94.48
2023-04-21T07:21:29.200Z,94.34
2023-04-21T07:22:29.792Z,95.06
2023-04-21T07:23:30.386Z,95.68
2023-04-21T07:24:30.978Z,95.78
2023-04-21T07:25:31.552Z,95.95
2023-04-21T07:26:32.124Z,95.95
2023-04-21T07:27:32.722Z,95.84
2023-04-21T07:28:32.706Z,95.74
2023-04-21T07:29:33.275Z,94.29
2023-04-21T07:30:33.872Z,93.88
2023-04-21T07:31:34.000Z,94.15
2023-04-21T07:32:34.332Z,93.90
2023-04-21T07:33:34.916Z,93.53
2023-04-21T07:34:35.523Z,93.24
2023-04-21T07:35:35.513Z,93.30
2023-04-21T07:36:36.102Z,91.75
2023-04-21T07:37:36.086Z,91.34
2023-04-21T07:38:36.755Z,91.69
2023-04-21T07:39:36.741Z,92.41
2023-04-21T07:40:37.315Z,92.10
2023-04-21T07:41:37.895Z,92.31
2023-04-21T07:42:38.464Z,92.82
2023-04-21T07:43:39.023Z,93.13
2023-04-21T07:44:39.584Z,92.57
2023-04-21T07:45:40.125Z,92.16
2023-04-21T07:46:40.699Z,91.96
2023-04-21T07:47:40.712Z,91.75
2023-04-21T07:48:40.699Z,91.96
2023-04-21T07:49:41.237Z,92.88
2023-04-21T07:50:41.774Z,92.99
2023-04-21T07:51:42.321Z,91.96
2023-04-21T07:52:42.857Z,91.54
2023-04-21T07:53:43.402Z,91.96
2023-04-21T07:54:43.958Z,92.78
2023-04-21T07:55:44.534Z,92.74
2023-04-21T07:56:45.092Z,92.63
2023-04-21T07:57:45.656Z,92.63
2023-04-21T07:58:46.203Z,92.84
2023-04-21T07:59:46.775Z,92.38
2023-04-21T08:00:47.345Z,92.08
2023-04-21T08:01:48.114Z,92.38
2023-04-21T08:02:48.397Z,92.29
2023-04-21T08:03:48.940Z,91.31
2023-04-21T08:04:49.104Z,90.28
2023-04-21T08:05:49.444Z,89.25
2023-04-21T08:06:49.980Z,89.15
2023-04-21T08:07:49.505Z,89.67
2023-04-21T08:08:50.079Z,89.62
2023-04-21T08:09:50.121Z,89.22
2023-04-21T08:10:50.062Z,89.97
2023-04-21T08:11:50.605Z,90.33
2023-04-21T08:12:51.150Z,91.46
2023-04-21T08:13:51.742Z,90.94
2023-04-21T08:14:55.251Z,90.49
2023-04-21T08:15:52.296Z,90.59
2023-04-21T08:16:53.506Z,90.34
2023-04-21T08:17:53.002Z,90.09
2023-04-21T08:18:52.975Z,89.17
2023-04-21T08:19:52.955Z,88.62
2023-04-21T08:20:53.514Z,88.68
2023-04-21T08:21:54.096Z,86.93
2023-04-21T08:22:54.227Z,87.13
2023-04-21T08:23:54.208Z,87.45
2023-04-21T08:24:54.731Z,87.30
2023-04-21T08:25:55.293Z,87.10
2023-04-21T08:26:55.977Z,86.48
2023-04-21T08:27:55.930Z,85.66
2023-04-21T08:28:56.452Z,86.72
2023-04-21T08:29:56.985Z,88.57
2023-04-21T08:30:57.511Z,89.66
2023-04-21T08:31:58.122Z,87.65
2023-04-21T08:32:58.245Z,88.57
2023-04-21T08:34:02.481Z,87.96
2023-04-21T08:34:58.319Z,88.08
2023-04-21T08:36:05.456Z,87.12
2023-04-21T08:36:59.081Z,86.91
2023-04-21T08:37:59.046Z,86.57
2023-04-21T08:38:59.087Z,86.63
2023-04-21T08:39:59.103Z,86.48
2023-04-21T08:40:59.081Z,84.78
2023-04-21T08:41:59.605Z,83.86
2023-04-21T08:43:00.132Z,84.37
2023-04-21T08:44:00.123Z,84.53
2023-04-21T08:45:00.174Z,84.33
2023-04-21T08:46:00.269Z,83.41
2023-04-21T08:47:00.253Z,84.53
2023-04-21T08:48:00.834Z,84.80
2023-04-21T08:49:00.811Z,83.27
2023-04-21T08:50:00.774Z,82.35
2023-04-21T08:51:00.723Z,82.96
2023-04-21T08:52:00.691Z,82.24
2023-04-21T08:53:01.240Z,82.86
2023-04-21T08:54:01.207Z,82.51
2023-04-21T08:55:01.218Z,82.51
2023-04-21T08:56:10.908Z,82.57
2023-04-21T08:57:11.886Z,81.45
2023-04-21T08:58:01.662Z,81.96
2023-04-21T08:59:01.631Z,80.33
2023-04-21T09:00:02.981Z,79.27
2023-04-21T09:01:01.643Z,80.90
2023-04-21T09:02:01.776Z,80.39
2023-04-21T09:03:02.693Z,80.49
2023-04-21T09:04:02.436Z,80.87
2023-04-21T09:05:02.776Z,80.87
2023-04-21T09:06:02.745Z,78.31
2023-04-21T09:07:02.843Z,78.99
2023-04-21T09:08:02.816Z,77.35
2023-04-21T09:09:02.763Z,77.66
2023-04-21T09:10:02.724Z,78.88
2023-04-21T09:11:02.772Z,78.27
2023-04-21T09:12:02.748Z,78.17
2023-04-21T09:13:02.705Z,78.88
2023-04-21T09:14:02.684Z,77.25
2023-04-21T09:15:02.628Z,78.48
2023-04-21T09:16:02.606Z,78.64
2023-04-21T09:17:02.820Z,77.42
2023-04-21T09:18:02.926Z,77.72
2023-04-21T09:19:02.925Z,76.19
2023-04-21T09:20:02.882Z,77.22
2023-04-21T09:21:02.838Z,77.52
2023-04-21T09:22:02.793Z,77.83
2023-04-21T09:23:02.751Z,77.93
2023-04-21T09:24:02.701Z,78.00
2023-04-21T09:25:02.648Z,76.84
2023-04-21T09:26:02.669Z,75.71
2023-04-21T09:27:02.660Z,76.77
2023-04-21T09:28:02.616Z,76.16
2023-04-21T09:29:02.589Z,75.51
2023-04-21T09:30:02.557Z,75.51
2023-04-21T09:31:02.523Z,77.89
2023-04-21T09:32:02.496Z,75.71
2023-04-21T09:33:06.211Z,76.63
2023-04-21T09:34:02.709Z,76.73
2023-04-21T09:35:02.684Z,76.22
2023-04-21T09:36:02.652Z,76.29
2023-04-21T09:37:02.604Z,74.86
2023-04-21T09:38:02.547Z,75.88
2023-04-21T09:40:05.177Z,75.78
2023-04-21T09:41:02.671Z,75.64
2023-04-21T09:42:02.606Z,75.34
2023-04-21T09:43:02.554Z,75.13
2023-04-21T09:44:02.497Z,75.51
2023-04-21T09:45:28.450Z,73.97
2023-04-21T09:46:02.707Z,73.91
2023-04-21T09:47:02.773Z,74.69
2023-04-21T09:48:02.736Z,75.98
2023-04-21T09:49:02.705Z,74.96
2023-04-21T09:50:02.828Z,73.91
2023-04-21T09:51:28.229Z,72.11
2023-04-21T09:53:02.086Z,75.84
2023-04-21T09:54:03.198Z,74.69
2023-04-21T09:55:03.131Z,74.04
2023-04-21T09:56:03.073Z,70.48
2023-04-21T09:57:03.025Z,71.43
2023-04-21T09:58:02.971Z,71.43
2023-04-21T09:59:02.934Z,73.06
2023-04-21T10:00:02.907Z,72.21
2023-04-21T10:01:02.867Z,71.77
2023-04-21T10:02:02.883Z,70.18
2023-04-21T10:03:02.964Z,73.09
2023-04-21T10:04:03.128Z,69.81
2023-04-21T10:05:03.361Z,70.72
2023-04-21T10:06:03.560Z,71.16
2023-04-21T10:07:03.585Z,72.48
2023-04-21T10:08:03.562Z,72.14
2023-04-21T10:09:03.498Z,69.81
2023-04-21T10:10:03.427Z,70.42
2023-04-21T10:11:03.374Z,70.75
2023-04-21T10:12:03.312Z,70.35
2023-04-21T10:13:03.234Z,70.21
2023-04-21T10:14:03.193Z,70.48
2023-04-21T10:15:03.124Z,69.87
2023-04-21T10:16:03.062Z,72.58
2023-04-21T10:17:03.085Z,70.72
2023-04-21T10:18:03.069Z,70.79
2023-04-21T10:19:03.019Z,69.74
2023-04-21T10:20:02.941Z,68.19
2023-04-21T10:21:02.876Z,68.08
2023-04-21T10:22:02.777Z,67.68
2023-04-21T10:23:02.695Z,67.91
2023-04-21T10:24:03.171Z,68.62
2023-04-21T10:25:03.660Z,68.52
2023-04-21T10:26:04.135Z,68.12
2023-04-21T10:27:04.034Z,66.80
2023-04-21T10:28:03.954Z,68.32
2023-04-21T10:29:04.453Z,68.70
2023-04-21T10:30:04.379Z,67.44
2023-04-21T10:31:04.360Z,67.11
2023-04-21T10:32:05.208Z,67.41
2023-04-21T10:33:04.486Z,68.19
2023-04-21T10:34:04.395Z,67.28
2023-04-21T10:35:04.337Z,65.45
2023-04-21T10:36:04.247Z,67.45
2023-04-21T10:37:04.165Z,66.74
2023-04-21T10:38:04.060Z,65.50
2023-04-21T10:39:04.504Z,65.39
2023-04-21T10:40:04.415Z,67.01
2023-04-21T10:41:04.320Z,67.22
2023-04-21T10:42:04.224Z,66.20
2023-04-21T10:43:04.115Z,65.56
2023-04-21T10:44:04.573Z,65.47
2023-04-21T10:45:05.032Z,65.29
2023-04-21T10:46:05.497Z,64.89
2023-04-21T10:47:05.995Z,64.89
2023-04-21T10:48:05.875Z,65.80
2023-04-21T10:49:05.808Z,65.90
2023-04-21T10:50:06.224Z,64.55
2023-04-21T10:51:06.662Z,64.86
2023-04-21T10:52:07.122Z,64.45
2023-04-21T10:53:07.507Z,65.19
2023-04-21T10:54:07.946Z,65.97
2023-04-21T10:55:08.424Z,66.17
2023-04-21T10:56:08.263Z,64.07
2023-04-21T10:57:08.728Z,64.51
2023-04-21T10:58:09.203Z,65.15
2023-04-21T10:59:09.100Z,65.73
2023-04-21T11:00:08.967Z,65.22
2023-04-21T11:01:09.407Z,65.53
2023-04-21T11:02:09.333Z,64.69
2023-04-21T11:03:09.388Z,66.00
2023-04-21T11:04:09.410Z,65.50
2023-04-21T11:05:09.427Z,64.18
2023-04-21T11:06:09.252Z,64.07
2023-04-21T11:07:09.659Z,64.96
2023-04-21T11:08:10.043Z,64.45
2023-04-21T11:09:10.427Z,63.31
2023-04-21T11:10:10.811Z,64.49
2023-04-21T11:11:11.295Z,64.09
2023-04-21T11:12:11.115Z,63.45
2023-04-21T11:13:11.534Z,64.67
2023-04-21T11:14:11.393Z,61.80
2023-04-21T11:15:11.762Z,63.12
2023-04-21T11:16:12.169Z,61.30
2023-04-21T11:17:12.544Z,60.42
2023-04-21T11:18:12.907Z,62.67
2023-04-21T11:19:13.309Z,61.03
2023-04-21T11:20:13.690Z,62.16
2023-04-21T11:21:14.040Z,64.46
2023-04-21T11:22:14.422Z,63.02
2023-04-21T11:23:14.798Z,62.62
2023-04-21T11:24:15.168Z,61.37
2023-04-21T11:25:15.585Z,60.97
2023-04-21T11:26:15.976Z,60.26
2023-04-21T11:27:16.335Z,60.74
2023-04-21T11:28:16.700Z,61.24
2023-04-21T11:29:17.131Z,60.21
2023-04-21T11:30:17.536Z,60.53
2023-04-21T11:31:17.907Z,61.52
2023-04-21T11:32:18.285Z,61.32
2023-04-21T11:33:18.657Z,60.24
2023-04-21T11:34:18.735Z,59.99
2023-04-21T11:35:18.655Z,61.43
2023-04-21T11:36:18.991Z,60.09
2023-04-21T11:37:19.321Z,60.29
2023-04-21T11:38:19.662Z,61.30
2023-04-21T11:39:21.829Z,60.97
2023-04-21T11:40:20.264Z,59.83
2023-04-21T11:41:20.602Z,59.67
2023-04-21T11:42:20.917Z,60.71
2023-04-21T11:43:21.245Z,61.08
2023-04-21T11:44:21.582Z,59.47
2023-04-21T11:45:22.784Z,60.05
2023-04-21T11:46:22.148Z,59.34
2023-04-21T11:47:21.988Z,58.94
2023-04-21T11:48:21.689Z,59.62
2023-04-21T11:49:21.975Z,58.71
2023-04-21T11:50:22.222Z,58.54
2023-04-21T11:51:22.599Z,58.23
2023-04-21T11:52:22.284Z,58.87
2023-04-21T11:53:22.535Z,59.09
2023-04-21T11:54:22.786Z,59.12
2023-04-21T11:55:23.047Z,59.22
2023-04-21T11:56:23.298Z,58.34
2023-04-21T11:57:23.567Z,59.25
2023-04-21T11:58:23.843Z,58.72
2023-04-21T11:59:25.657Z,59.93
2023-04-21T12:00:24.015Z,59.09
2023-04-21T12:01:24.291Z,59.60
2023-04-21T12:02:24.666Z,59.47
2023-04-21T12:03:24.539Z,58.44
2023-04-21T12:04:24.381Z,58.03
2023-04-21T12:05:24.143Z,57.83
2023-04-21T12:06:23.968Z,58.97
2023-04-21T12:07:23.763Z,57.38
2023-04-21T12:08:24.005Z,59.42
2023-04-21T12:09:24.259Z,59.73
2023-04-21T12:10:24.497Z,59.00
2023-04-21T12:11:24.737Z,58.89
2023-04-21T12:12:24.966Z,58.16
2023-04-21T12:13:25.212Z,58.26
2023-04-21T12:14:25.435Z,57.43
2023-04-21T12:15:25.714Z,57.40
2023-04-21T12:16:25.448Z,56.16
2023-04-21T12:17:25.141Z,56.07
2023-04-21T12:18:24.810Z,55.74
2023-04-21T12:19:25.033Z,55.23
2023-04-21T12:20:25.255Z,54.80
2023-04-21T12:21:25.462Z,56.71
2023-04-21T12:22:25.666Z,56.49
2023-04-21T12:23:25.850Z,55.55
2023-04-21T12:24:26.054Z,55.26
2023-04-21T12:25:25.693Z,55.66
2023-04-21T12:26:25.892Z,54.88
2023-04-21T12:27:26.082Z,56.16
2023-04-21T12:28:26.257Z,54.96
2023-04-21T12:29:26.453Z,54.05
2023-04-21T12:30:26.635Z,54.55
2023-04-21T12:31:26.944Z,54.58
2023-04-21T12:32:26.618Z,54.80
2023-04-21T12:33:26.419Z,54.43
2023-04-21T12:34:26.138Z,56.27
2023-04-21T12:35:26.326Z,54.15
2023-04-21T12:36:26.557Z,54.99
2023-04-21T12:37:26.745Z,57.50
2023-04-21T12:38:26.953Z,57.45
2023-04-21T12:39:27.244Z,56.14
2023-04-21T12:40:27.012Z,55.87
2023-04-21T12:41:27.211Z,56.95
2023-04-21T12:42:27.456Z,56.51
2023-04-21T12:43:27.657Z,56.31
2023-04-21T12:44:27.865Z,53.07
2023-04-21T12:45:28.126Z,53.37
2023-04-21T12:46:28.044Z,55.86
2023-04-21T12:47:27.766Z,54.65
2023-04-21T12:48:27.409Z,56.03
2023-04-21T12:49:27.790Z,55.30
2023-04-21T12:50:27.491Z,54.17
2023-04-21T12:51:27.693Z,53.39
2023-04-21T12:52:27.886Z,52.87
2023-04-21T12:53:30.491Z,51.49
2023-04-21T12:54:27.845Z,52.82
2023-04-21T12:55:28.028Z,54.20
2023-04-21T12:56:28.202Z,54.38
2023-04-21T12:57:28.397Z,52.75
2023-04-21T12:58:28.584Z,52.77
2023-04-21T12:59:29.089Z,53.50
2023-04-21T13:00:28.901Z,52.32
2023-04-21T13:01:29.155Z,53.52
2023-04-21T13:02:28.863Z,53.39
2023-04-21T13:03:28.680Z,52.47